Aviation Digital Data Service (ADDS)

Output produced by METARs form (2322 UTC 29 April 2017)
found at http://aviationweather.gov/adds/metars/
 
KJXN 292204Z 2922/3018 10010KT P6SM VCSH OVC045 
     FM300100 08012G18KT 5SM -SHRA BR OVC020 
     FM301000 11012G18KT 4SM BR VCTS OVC007CB 
     FM301500 12008KT 2SM BR VCTS OVC003CB